sensor_id;sensor_type;location;lat;lon;timestamp;P1;durP1;ratioP1;P2;durP2;ratioP2
48975;SDS011;34791;52.752;8.346;2023-01-23T00:02:13;16.00;;;8.90;;
48975;SDS011;34791;52.752;8.346;2023-01-23T00:04:39;16.40;;;8.63;;
48975;SDS011;34791;52.752;8.346;2023-01-23T00:07:04;20.77;;;8.97;;
48975;SDS011;34791;52.752;8.346;2023-01-23T00:09:30;19.97;;;9.37;;
48975;SDS011;34791;52.752;8.346;2023-01-23T00:11:55;18.30;;;8.57;;
48975;SDS011;34791;52.752;8.346;2023-01-23T00:14:21;14.30;;;8.33;;
48975;SDS011;34791;52.752;8.346;2023-01-23T00:16:47;17.27;;;8.70;;
48975;SDS011;34791;52.752;8.346;2023-01-23T00:19:12;17.87;;;9.10;;
48975;SDS011;34791;52.752;8.346;2023-01-23T00:21:37;18.97;;;9.23;;
48975;SDS011;34791;52.752;8.346;2023-01-23T00:24:03;18.93;;;9.70;;
48975;SDS011;34791;52.752;8.346;2023-01-23T00:26:30;21.27;;;9.37;;
48975;SDS011;34791;52.752;8.346;2023-01-23T00:28:58;17.40;;;9.07;;
48975;SDS011;34791;52.752;8.346;2023-01-23T00:31:24;20.97;;;9.33;;
48975;SDS011;34791;52.752;8.346;2023-01-23T00:33:55;17.77;;;9.27;;
48975;SDS011;34791;52.752;8.346;2023-01-23T00:36:22;21.00;;;9.77;;
48975;SDS011;34791;52.752;8.346;2023-01-23T00:38:48;21.63;;;9.00;;
48975;SDS011;34791;52.752;8.346;2023-01-23T00:41:14;17.27;;;9.53;;
48975;SDS011;34791;52.752;8.346;2023-01-23T00:43:39;20.63;;;9.77;;
48975;SDS011;34791;52.752;8.346;2023-01-23T00:46:06;16.03;;;9.03;;
48975;SDS011;34791;52.752;8.346;2023-01-23T00:48:31;17.17;;;9.33;;
48975;SDS011;34791;52.752;8.346;2023-01-23T00:50:57;18.13;;;8.70;;
48975;SDS011;34791;52.752;8.346;2023-01-23T00:53:22;21.00;;;9.33;;
48975;SDS011;34791;52.752;8.346;2023-01-23T00:55:48;18.27;;;9.53;;
48975;SDS011;34791;52.752;8.346;2023-01-23T00:58:13;18.53;;;9.23;;
48975;SDS011;34791;52.752;8.346;2023-01-23T01:00:39;19.40;;;9.03;;
48975;SDS011;34791;52.752;8.346;2023-01-23T01:03:05;17.87;;;9.30;;
48975;SDS011;34791;52.752;8.346;2023-01-23T01:05:31;18.77;;;8.77;;
48975;SDS011;34791;52.752;8.346;2023-01-23T01:07:57;18.20;;;9.97;;
48975;SDS011;34791;52.752;8.346;2023-01-23T01:10:22;20.33;;;9.30;;
48975;SDS011;34791;52.752;8.346;2023-01-23T01:12:54;16.30;;;9.07;;
48975;SDS011;34791;52.752;8.346;2023-01-23T01:15:24;15.95;;;6.90;;
48975;SDS011;34791;52.752;8.346;2023-01-23T01:17:50;19.70;;;9.40;;
48975;SDS011;34791;52.752;8.346;2023-01-23T01:20:22;16.93;;;8.80;;
48975;SDS011;34791;52.752;8.346;2023-01-23T01:22:50;18.83;;;9.80;;
48975;SDS011;34791;52.752;8.346;2023-01-23T01:25:16;18.97;;;8.93;;
48975;SDS011;34791;52.752;8.346;2023-01-23T01:27:41;21.60;;;9.43;;
48975;SDS011;34791;52.752;8.346;2023-01-23T01:30:07;23.33;;;10.00;;
48975;SDS011;34791;52.752;8.346;2023-01-23T01:32:37;19.63;;;10.00;;
48975;SDS011;34791;52.752;8.346;2023-01-23T01:35:03;20.50;;;9.47;;
48975;SDS011;34791;52.752;8.346;2023-01-23T01:37:34;20.17;;;10.03;;
48975;SDS011;34791;52.752;8.346;2023-01-23T01:40:01;22.10;;;10.10;;
48975;SDS011;34791;52.752;8.346;2023-01-23T01:42:27;21.97;;;9.97;;
48975;SDS011;34791;52.752;8.346;2023-01-23T01:44:57;21.27;;;9.90;;
48975;SDS011;34791;52.752;8.346;2023-01-23T01:47:24;22.27;;;10.68;;
48975;SDS011;34791;52.752;8.346;2023-01-23T01:49:50;23.17;;;9.87;;
48975;SDS011;34791;52.752;8.346;2023-01-23T01:52:19;18.73;;;9.10;;
48975;SDS011;34791;52.752;8.346;2023-01-23T01:54:48;19.87;;;10.40;;
48975;SDS011;34791;52.752;8.346;2023-01-23T02:02:29;16.30;;;8.97;;
48975;SDS011;34791;52.752;8.346;2023-01-23T02:05:03;16.85;;;9.82;;
48975;SDS011;34791;52.752;8.346;2023-01-23T02:10:18;19.23;;;10.20;;
48975;SDS011;34791;52.752;8.346;2023-01-23T02:12:45;20.93;;;10.30;;
48975;SDS011;34791;52.752;8.346;2023-01-23T02:15:12;16.30;;;9.40;;
48975;SDS011;34791;52.752;8.346;2023-01-23T02:17:38;17.53;;;8.50;;
48975;SDS011;34791;52.752;8.346;2023-01-23T02:20:10;18.30;;;8.67;;
48975;SDS011;34791;52.752;8.346;2023-01-23T02:22:48;20.60;;;9.60;;
48975;SDS011;34791;52.752;8.346;2023-01-23T02:26:08;19.67;;;9.17;;
48975;SDS011;34791;52.752;8.346;2023-01-23T02:28:07;17.20;;;9.60;;
48975;SDS011;34791;52.752;8.346;2023-01-23T02:30:37;18.77;;;9.90;;
48975;SDS011;34791;52.752;8.346;2023-01-23T02:33:10;20.60;;;9.67;;
48975;SDS011;34791;52.752;8.346;2023-01-23T02:35:59;16.03;;;8.37;;
48975;SDS011;34791;52.752;8.346;2023-01-23T02:38:28;19.67;;;9.37;;
48975;SDS011;34791;52.752;8.346;2023-01-23T02:40:56;20.67;;;9.87;;
48975;SDS011;34791;52.752;8.346;2023-01-23T02:43:26;21.80;;;9.50;;
48975;SDS011;34791;52.752;8.346;2023-01-23T02:46:03;17.20;;;9.33;;
48975;SDS011;34791;52.752;8.346;2023-01-23T02:48:29;18.63;;;8.90;;
48975;SDS011;34791;52.752;8.346;2023-01-23T02:50:54;19.07;;;10.10;;
48975;SDS011;34791;52.752;8.346;2023-01-23T02:53:20;18.37;;;10.13;;
48975;SDS011;34791;52.752;8.346;2023-01-23T02:55:45;17.53;;;9.33;;
48975;SDS011;34791;52.752;8.346;2023-01-23T02:58:10;18.63;;;8.90;;
48975;SDS011;34791;52.752;8.346;2023-01-23T03:00:55;19.10;;;10.17;;
48975;SDS011;34791;52.752;8.346;2023-01-23T03:03:20;20.43;;;10.37;;
48975;SDS011;34791;52.752;8.346;2023-01-23T03:05:46;18.27;;;10.03;;
48975;SDS011;34791;52.752;8.346;2023-01-23T03:08:12;18.33;;;9.97;;
48975;SDS011;34791;52.752;8.346;2023-01-23T03:10:37;17.07;;;9.73;;
48975;SDS011;34791;52.752;8.346;2023-01-23T03:13:03;17.70;;;9.60;;
48975;SDS011;34791;52.752;8.346;2023-01-23T03:15:31;18.77;;;10.33;;
48975;SDS011;34791;52.752;8.346;2023-01-23T03:17:58;19.70;;;9.93;;
48975;SDS011;34791;52.752;8.346;2023-01-23T03:20:23;18.00;;;9.87;;
48975;SDS011;34791;52.752;8.346;2023-01-23T03:22:50;18.03;;;10.47;;
48975;SDS011;34791;52.752;8.346;2023-01-23T03:25:16;16.13;;;9.13;;
48975;SDS011;34791;52.752;8.346;2023-01-23T03:27:41;19.37;;;9.87;;
48975;SDS011;34791;52.752;8.346;2023-01-23T03:30:07;24.50;;;11.13;;
48975;SDS011;34791;52.752;8.346;2023-01-23T03:32:39;17.27;;;9.20;;
48975;SDS011;34791;52.752;8.346;2023-01-23T03:35:06;22.33;;;10.37;;
48975;SDS011;34791;52.752;8.346;2023-01-23T03:37:40;18.63;;;10.17;;
48975;SDS011;34791;52.752;8.346;2023-01-23T03:40:17;16.57;;;9.53;;
48975;SDS011;34791;52.752;8.346;2023-01-23T03:43:02;20.27;;;10.93;;
48975;SDS011;34791;52.752;8.346;2023-01-23T03:45:28;17.63;;;10.27;;
48975;SDS011;34791;52.752;8.346;2023-01-23T03:47:53;19.80;;;10.27;;
48975;SDS011;34791;52.752;8.346;2023-01-23T03:50:19;20.60;;;9.93;;
48975;SDS011;34791;52.752;8.346;2023-01-23T03:52:44;19.47;;;9.40;;
48975;SDS011;34791;52.752;8.346;2023-01-23T03:55:09;18.40;;;9.20;;
48975;SDS011;34791;52.752;8.346;2023-01-23T03:57:35;15.77;;;9.10;;
48975;SDS011;34791;52.752;8.346;2023-01-23T04:00:00;17.80;;;9.20;;
48975;SDS011;34791;52.752;8.346;2023-01-23T04:02:26;18.93;;;10.03;;
48975;SDS011;34791;52.752;8.346;2023-01-23T04:04:51;19.17;;;9.23;;
48975;SDS011;34791;52.752;8.346;2023-01-23T04:07:17;18.20;;;9.57;;
48975;SDS011;34791;52.752;8.346;2023-01-23T04:09:42;18.43;;;9.87;;
48975;SDS011;34791;52.752;8.346;2023-01-23T04:12:08;18.03;;;9.60;;
48975;SDS011;34791;52.752;8.346;2023-01-23T04:14:34;16.00;;;9.37;;
48975;SDS011;34791;52.752;8.346;2023-01-23T04:17:02;16.77;;;9.43;;
48975;SDS011;34791;52.752;8.346;2023-01-23T04:19:28;18.10;;;9.60;;
48975;SDS011;34791;52.752;8.346;2023-01-23T04:21:54;17.50;;;10.00;;
48975;SDS011;34791;52.752;8.346;2023-01-23T04:24:19;20.70;;;9.83;;
48975;SDS011;34791;52.752;8.346;2023-01-23T04:26:44;19.53;;;9.63;;
48975;SDS011;34791;52.752;8.346;2023-01-23T04:29:10;18.30;;;9.20;;
48975;SDS011;34791;52.752;8.346;2023-01-23T04:31:36;19.70;;;9.43;;
48975;SDS011;34791;52.752;8.346;2023-01-23T04:34:01;18.37;;;8.80;;
48975;SDS011;34791;52.752;8.346;2023-01-23T04:36:27;16.27;;;9.50;;
48975;SDS011;34791;52.752;8.346;2023-01-23T04:38:53;24.03;;;10.83;;
48975;SDS011;34791;52.752;8.346;2023-01-23T04:41:20;19.53;;;10.67;;
48975;SDS011;34791;52.752;8.346;2023-01-23T04:43:47;18.43;;;9.97;;
48975;SDS011;34791;52.752;8.346;2023-01-23T04:46:13;16.47;;;9.73;;
48975;SDS011;34791;52.752;8.346;2023-01-23T04:48:38;21.47;;;10.07;;
48975;SDS011;34791;52.752;8.346;2023-01-23T04:51:04;20.70;;;10.47;;
48975;SDS011;34791;52.752;8.346;2023-01-23T04:53:30;19.07;;;10.33;;
48975;SDS011;34791;52.752;8.346;2023-01-23T04:55:56;20.77;;;10.20;;
48975;SDS011;34791;52.752;8.346;2023-01-23T04:58:21;18.50;;;10.10;;
48975;SDS011;34791;52.752;8.346;2023-01-23T05:00:47;22.37;;;10.53;;
48975;SDS011;34791;52.752;8.346;2023-01-23T05:03:13;18.47;;;9.53;;
48975;SDS011;34791;52.752;8.346;2023-01-23T05:05:39;19.20;;;10.20;;
48975;SDS011;34791;52.752;8.346;2023-01-23T05:08:04;20.70;;;10.70;;
48975;SDS011;34791;52.752;8.346;2023-01-23T05:10:30;23.23;;;10.90;;
48975;SDS011;34791;52.752;8.346;2023-01-23T05:12:55;19.33;;;10.17;;
48975;SDS011;34791;52.752;8.346;2023-01-23T05:15:21;20.37;;;10.70;;
48975;SDS011;34791;52.752;8.346;2023-01-23T05:17:46;21.30;;;10.67;;
48975;SDS011;34791;52.752;8.346;2023-01-23T05:20:13;19.80;;;10.73;;
48975;SDS011;34791;52.752;8.346;2023-01-23T05:22:38;22.23;;;10.97;;
48975;SDS011;34791;52.752;8.346;2023-01-23T05:25:16;22.13;;;10.77;;
48975;SDS011;34791;52.752;8.346;2023-01-23T05:27:42;20.30;;;11.07;;
48975;SDS011;34791;52.752;8.346;2023-01-23T05:30:07;20.70;;;10.60;;
48975;SDS011;34791;52.752;8.346;2023-01-23T05:32:33;22.27;;;10.97;;
48975;SDS011;34791;52.752;8.346;2023-01-23T05:34:58;21.57;;;10.70;;
48975;SDS011;34791;52.752;8.346;2023-01-23T05:37:24;23.53;;;11.13;;
48975;SDS011;34791;52.752;8.346;2023-01-23T05:39:49;21.50;;;9.60;;
48975;SDS011;34791;52.752;8.346;2023-01-23T05:42:15;21.37;;;11.23;;
48975;SDS011;34791;52.752;8.346;2023-01-23T05:44:40;20.90;;;11.17;;
48975;SDS011;34791;52.752;8.346;2023-01-23T05:47:06;19.53;;;10.87;;
48975;SDS011;34791;52.752;8.346;2023-01-23T05:49:37;21.23;;;10.80;;
48975;SDS011;34791;52.752;8.346;2023-01-23T05:52:03;23.05;;;10.63;;
48975;SDS011;34791;52.752;8.346;2023-01-23T05:54:28;19.07;;;10.53;;
48975;SDS011;34791;52.752;8.346;2023-01-23T05:56:57;19.10;;;10.47;;
48975;SDS011;34791;52.752;8.346;2023-01-23T05:59:26;20.63;;;10.13;;
48975;SDS011;34791;52.752;8.346;2023-01-23T06:01:55;17.67;;;9.70;;
48975;SDS011;34791;52.752;8.346;2023-01-23T06:04:20;20.63;;;10.40;;
48975;SDS011;34791;52.752;8.346;2023-01-23T06:06:46;17.60;;;8.90;;
48975;SDS011;34791;52.752;8.346;2023-01-23T06:09:11;19.53;;;10.00;;
48975;SDS011;34791;52.752;8.346;2023-01-23T06:11:36;18.23;;;10.07;;
48975;SDS011;34791;52.752;8.346;2023-01-23T06:14:03;19.33;;;9.93;;
48975;SDS011;34791;52.752;8.346;2023-01-23T06:16:28;17.10;;;10.13;;
48975;SDS011;34791;52.752;8.346;2023-01-23T06:18:53;20.70;;;10.77;;
48975;SDS011;34791;52.752;8.346;2023-01-23T06:21:19;22.00;;;10.93;;
48975;SDS011;34791;52.752;8.346;2023-01-23T06:23:45;18.80;;;9.80;;
48975;SDS011;34791;52.752;8.346;2023-01-23T06:26:11;20.80;;;10.83;;
48975;SDS011;34791;52.752;8.346;2023-01-23T06:28:37;19.93;;;10.90;;
48975;SDS011;34791;52.752;8.346;2023-01-23T06:31:03;19.00;;;10.67;;
48975;SDS011;34791;52.752;8.346;2023-01-23T06:33:30;20.10;;;9.93;;
48975;SDS011;34791;52.752;8.346;2023-01-23T06:35:56;19.43;;;10.03;;
48975;SDS011;34791;52.752;8.346;2023-01-23T06:38:26;17.93;;;10.00;;
48975;SDS011;34791;52.752;8.346;2023-01-23T06:40:52;22.80;;;10.47;;
48975;SDS011;34791;52.752;8.346;2023-01-23T06:43:18;18.10;;;10.17;;
48975;SDS011;34791;52.752;8.346;2023-01-23T06:45:45;19.77;;;10.50;;
48975;SDS011;34791;52.752;8.346;2023-01-23T06:48:14;21.93;;;10.70;;
48975;SDS011;34791;52.752;8.346;2023-01-23T06:50:42;19.60;;;10.75;;
48975;SDS011;34791;52.752;8.346;2023-01-23T06:53:11;21.63;;;10.80;;
48975;SDS011;34791;52.752;8.346;2023-01-23T06:55:38;19.10;;;10.37;;
48975;SDS011;34791;52.752;8.346;2023-01-23T06:58:04;20.20;;;10.97;;
48975;SDS011;34791;52.752;8.346;2023-01-23T07:00:30;23.17;;;11.07;;
48975;SDS011;34791;52.752;8.346;2023-01-23T07:02:59;19.53;;;10.70;;
48975;SDS011;34791;52.752;8.346;2023-01-23T07:05:30;18.80;;;10.47;;
48975;SDS011;34791;52.752;8.346;2023-01-23T07:08:00;17.83;;;10.07;;
48975;SDS011;34791;52.752;8.346;2023-01-23T07:10:25;19.40;;;10.73;;
48975;SDS011;34791;52.752;8.346;2023-01-23T07:12:51;20.57;;;9.93;;
48975;SDS011;34791;52.752;8.346;2023-01-23T07:15:16;22.07;;;10.17;;
48975;SDS011;34791;52.752;8.346;2023-01-23T07:17:42;18.73;;;10.50;;
48975;SDS011;34791;52.752;8.346;2023-01-23T07:20:07;21.87;;;11.23;;
48975;SDS011;34791;52.752;8.346;2023-01-23T07:22:34;22.97;;;11.00;;
48975;SDS011;34791;52.752;8.346;2023-01-23T07:24:59;19.40;;;10.47;;
48975;SDS011;34791;52.752;8.346;2023-01-23T07:27:25;21.37;;;10.83;;
48975;SDS011;34791;52.752;8.346;2023-01-23T07:29:50;21.57;;;11.80;;
48975;SDS011;34791;52.752;8.346;2023-01-23T07:32:15;22.90;;;10.90;;
48975;SDS011;34791;52.752;8.346;2023-01-23T07:34:41;20.20;;;10.40;;
48975;SDS011;34791;52.752;8.346;2023-01-23T07:37:06;21.10;;;11.20;;
48975;SDS011;34791;52.752;8.346;2023-01-23T07:39:32;23.70;;;11.63;;
48975;SDS011;34791;52.752;8.346;2023-01-23T07:41:57;23.30;;;11.53;;
48975;SDS011;34791;52.752;8.346;2023-01-23T07:44:22;24.10;;;11.23;;
48975;SDS011;34791;52.752;8.346;2023-01-23T07:46:48;19.47;;;11.63;;
48975;SDS011;34791;52.752;8.346;2023-01-23T07:49:13;23.23;;;11.07;;
48975;SDS011;34791;52.752;8.346;2023-01-23T07:51:40;23.60;;;12.23;;
48975;SDS011;34791;52.752;8.346;2023-01-23T07:54:05;21.23;;;11.37;;
48975;SDS011;34791;52.752;8.346;2023-01-23T07:56:31;24.83;;;12.07;;
48975;SDS011;34791;52.752;8.346;2023-01-23T07:58:57;22.20;;;12.07;;
48975;SDS011;34791;52.752;8.346;2023-01-23T08:01:23;22.60;;;9.77;;
48975;SDS011;34791;52.752;8.346;2023-01-23T08:03:49;20.70;;;10.03;;
48975;SDS011;34791;52.752;8.346;2023-01-23T08:06:14;20.57;;;11.03;;
48975;SDS011;34791;52.752;8.346;2023-01-23T08:08:39;22.97;;;11.23;;
48975;SDS011;34791;52.752;8.346;2023-01-23T08:11:05;23.90;;;12.07;;
48975;SDS011;34791;52.752;8.346;2023-01-23T08:13:34;25.43;;;12.10;;
48975;SDS011;34791;52.752;8.346;2023-01-23T08:16:00;22.87;;;11.93;;
48975;SDS011;34791;52.752;8.346;2023-01-23T08:18:27;23.97;;;12.20;;
48975;SDS011;34791;52.752;8.346;2023-01-23T08:20:53;24.17;;;11.90;;
48975;SDS011;34791;52.752;8.346;2023-01-23T08:23:23;21.67;;;11.70;;
48975;SDS011;34791;52.752;8.346;2023-01-23T08:25:53;22.50;;;10.53;;
48975;SDS011;34791;52.752;8.346;2023-01-23T08:28:20;24.47;;;12.17;;
48975;SDS011;34791;52.752;8.346;2023-01-23T08:30:45;23.70;;;12.90;;
48975;SDS011;34791;52.752;8.346;2023-01-23T08:33:11;25.40;;;13.37;;
48975;SDS011;34791;52.752;8.346;2023-01-23T08:35:36;22.60;;;11.77;;
48975;SDS011;34791;52.752;8.346;2023-01-23T08:38:02;20.23;;;11.87;;
48975;SDS011;34791;52.752;8.346;2023-01-23T08:40:27;20.13;;;9.80;;
48975;SDS011;34791;52.752;8.346;2023-01-23T08:42:54;21.90;;;11.13;;
48975;SDS011;34791;52.752;8.346;2023-01-23T08:45:19;19.47;;;10.50;;
48975;SDS011;34791;52.752;8.346;2023-01-23T08:47:46;17.80;;;9.87;;
48975;SDS011;34791;52.752;8.346;2023-01-23T08:50:11;17.03;;;8.13;;
48975;SDS011;34791;52.752;8.346;2023-01-23T08:52:37;16.70;;;9.27;;
48975;SDS011;34791;52.752;8.346;2023-01-23T08:55:02;23.70;;;11.10;;
48975;SDS011;34791;52.752;8.346;2023-01-23T08:57:27;24.33;;;11.80;;
48975;SDS011;34791;52.752;8.346;2023-01-23T08:59:54;20.47;;;10.50;;
48975;SDS011;34791;52.752;8.346;2023-01-23T09:02:19;20.43;;;10.60;;
48975;SDS011;34791;52.752;8.346;2023-01-23T09:04:46;17.93;;;10.63;;
48975;SDS011;34791;52.752;8.346;2023-01-23T09:07:11;18.90;;;10.23;;
48975;SDS011;34791;52.752;8.346;2023-01-23T09:09:37;20.23;;;11.10;;
48975;SDS011;34791;52.752;8.346;2023-01-23T09:12:03;18.03;;;9.60;;
48975;SDS011;34791;52.752;8.346;2023-01-23T09:14:29;18.57;;;9.03;;
48975;SDS011;34791;52.752;8.346;2023-01-23T09:16:54;19.53;;;10.70;;
48975;SDS011;34791;52.752;8.346;2023-01-23T09:19:20;17.50;;;8.80;;
48975;SDS011;34791;52.752;8.346;2023-01-23T09:21:45;20.67;;;10.43;;
48975;SDS011;34791;52.752;8.346;2023-01-23T09:24:10;17.60;;;9.67;;
48975;SDS011;34791;52.752;8.346;2023-01-23T09:26:36;20.07;;;9.80;;
48975;SDS011;34791;52.752;8.346;2023-01-23T09:29:02;20.00;;;9.37;;
48975;SDS011;34791;52.752;8.346;2023-01-23T09:31:27;22.07;;;10.33;;
48975;SDS011;34791;52.752;8.346;2023-01-23T09:33:52;19.60;;;10.40;;
48975;SDS011;34791;52.752;8.346;2023-01-23T09:36:18;17.87;;;9.80;;
48975;SDS011;34791;52.752;8.346;2023-01-23T09:38:43;20.43;;;11.43;;
48975;SDS011;34791;52.752;8.346;2023-01-23T09:41:22;20.63;;;10.33;;
48975;SDS011;34791;52.752;8.346;2023-01-23T09:43:52;19.40;;;9.30;;
48975;SDS011;34791;52.752;8.346;2023-01-23T09:51:59;17.90;;;9.20;;
48975;SDS011;34791;52.752;8.346;2023-01-23T09:57:15;21.03;;;10.03;;
48975;SDS011;34791;52.752;8.346;2023-01-23T09:59:42;15.27;;;7.40;;
48975;SDS011;34791;52.752;8.346;2023-01-23T10:02:21;20.37;;;9.37;;
48975;SDS011;34791;52.752;8.346;2023-01-23T10:04:50;22.17;;;9.30;;
48975;SDS011;34791;52.752;8.346;2023-01-23T10:09:55;20.50;;;9.57;;
48975;SDS011;34791;52.752;8.346;2023-01-23T10:23:45;20.40;;;8.60;;
48975;SDS011;34791;52.752;8.346;2023-01-23T10:26:20;17.80;;;8.97;;
48975;SDS011;34791;52.752;8.346;2023-01-23T10:28:50;13.63;;;5.40;;
48975;SDS011;34791;52.752;8.346;2023-01-23T10:34:22;14.37;;;7.27;;
48975;SDS011;34791;52.752;8.346;2023-01-23T10:37:04;16.37;;;8.30;;
48975;SDS011;34791;52.752;8.346;2023-01-23T10:39:43;14.53;;;8.00;;
48975;SDS011;34791;52.752;8.346;2023-01-23T10:42:16;12.70;;;6.50;;
48975;SDS011;34791;52.752;8.346;2023-01-23T10:44:44;16.63;;;7.27;;
48975;SDS011;34791;52.752;8.346;2023-01-23T10:47:13;14.77;;;7.33;;
48975;SDS011;34791;52.752;8.346;2023-01-23T10:54:58;15.73;;;7.90;;
48975;SDS011;34791;52.752;8.346;2023-01-23T10:57:25;14.00;;;6.17;;
48975;SDS011;34791;52.752;8.346;2023-01-23T11:02:37;16.33;;;8.13;;
48975;SDS011;34791;52.752;8.346;2023-01-23T11:05:49;16.10;;;9.27;;
48975;SDS011;34791;52.752;8.346;2023-01-23T11:07:59;11.83;;;5.47;;
48975;SDS011;34791;52.752;8.346;2023-01-23T11:10:24;12.70;;;5.90;;
48975;SDS011;34791;52.752;8.346;2023-01-23T11:12:50;16.70;;;8.13;;
48975;SDS011;34791;52.752;8.346;2023-01-23T11:15:22;13.93;;;7.23;;
48975;SDS011;34791;52.752;8.346;2023-01-23T11:17:58;15.70;;;7.50;;
48975;SDS011;34791;52.752;8.346;2023-01-23T11:25:50;15.53;;;7.80;;
48975;SDS011;34791;52.752;8.346;2023-01-23T11:34:07;17.63;;;9.33;;
48975;SDS011;34791;52.752;8.346;2023-01-23T11:40:18;17.80;;;9.07;;
48975;SDS011;34791;52.752;8.346;2023-01-23T11:42:29;17.10;;;8.03;;
48975;SDS011;34791;52.752;8.346;2023-01-23T11:44:57;18.33;;;9.30;;
48975;SDS011;34791;52.752;8.346;2023-01-23T11:50:10;17.37;;;9.23;;
48975;SDS011;34791;52.752;8.346;2023-01-23T11:52:54;17.20;;;9.40;;
48975;SDS011;34791;52.752;8.346;2023-01-23T12:01:01;17.23;;;9.23;;
48975;SDS011;34791;52.752;8.346;2023-01-23T12:03:56;17.13;;;9.47;;
48975;SDS011;34791;52.752;8.346;2023-01-23T12:06:38;17.87;;;9.50;;
48975;SDS011;34791;52.752;8.346;2023-01-23T12:09:13;16.13;;;7.27;;
48975;SDS011;34791;52.752;8.346;2023-01-23T12:16:58;19.50;;;10.02;;
48975;SDS011;34791;52.752;8.346;2023-01-23T12:36:31;20.60;;;9.57;;
48975;SDS011;34791;52.752;8.346;2023-01-23T12:42:07;17.93;;;9.73;;
48975;SDS011;34791;52.752;8.346;2023-01-23T12:45:05;18.70;;;9.83;;
48975;SDS011;34791;52.752;8.346;2023-01-23T12:47:42;22.57;;;9.93;;
48975;SDS011;34791;52.752;8.346;2023-01-23T12:50:16;19.13;;;9.50;;
48975;SDS011;34791;52.752;8.346;2023-01-23T12:52:50;19.60;;;9.82;;
48975;SDS011;34791;52.752;8.346;2023-01-23T12:57:47;16.73;;;9.03;;
48975;SDS011;34791;52.752;8.346;2023-01-23T13:02:48;26.60;;;11.03;;
48975;SDS011;34791;52.752;8.346;2023-01-23T13:05:26;20.17;;;10.10;;
48975;SDS011;34791;52.752;8.346;2023-01-23T13:10:56;20.53;;;10.40;;
48975;SDS011;34791;52.752;8.346;2023-01-23T13:13:42;19.13;;;9.50;;
48975;SDS011;34791;52.752;8.346;2023-01-23T13:16:13;17.90;;;9.33;;
48975;SDS011;34791;52.752;8.346;2023-01-23T13:18:50;16.17;;;8.40;;
48975;SDS011;34791;52.752;8.346;2023-01-23T13:21:36;19.23;;;9.67;;
48975;SDS011;34791;52.752;8.346;2023-01-23T13:24:26;19.17;;;9.53;;
48975;SDS011;34791;52.752;8.346;2023-01-23T13:27:33;18.50;;;9.17;;
48975;SDS011;34791;52.752;8.346;2023-01-23T13:29:58;16.50;;;8.50;;
48975;SDS011;34791;52.752;8.346;2023-01-23T13:32:27;15.73;;;7.00;;
48975;SDS011;34791;52.752;8.346;2023-01-23T13:34:53;20.20;;;10.57;;
48975;SDS011;34791;52.752;8.346;2023-01-23T13:40:19;18.57;;;8.07;;
48975;SDS011;34791;52.752;8.346;2023-01-23T13:42:46;18.73;;;9.65;;
48975;SDS011;34791;52.752;8.346;2023-01-23T13:45:24;18.63;;;9.13;;
48975;SDS011;34791;52.752;8.346;2023-01-23T13:51:20;20.57;;;10.17;;
48975;SDS011;34791;52.752;8.346;2023-01-23T13:53:48;21.27;;;10.10;;
48975;SDS011;34791;52.752;8.346;2023-01-23T13:56:33;24.20;;;9.77;;
48975;SDS011;34791;52.752;8.346;2023-01-23T14:01:43;20.17;;;9.97;;
48975;SDS011;34791;52.752;8.346;2023-01-23T14:04:34;18.67;;;9.30;;
48975;SDS011;34791;52.752;8.346;2023-01-23T14:07:33;23.43;;;11.03;;
48975;SDS011;34791;52.752;8.346;2023-01-23T14:10:24;19.63;;;10.50;;
48975;SDS011;34791;52.752;8.346;2023-01-23T14:15:33;23.67;;;12.13;;
48975;SDS011;34791;52.752;8.346;2023-01-23T14:20:53;21.03;;;11.63;;
48975;SDS011;34791;52.752;8.346;2023-01-23T14:23:26;23.08;;;11.68;;
48975;SDS011;34791;52.752;8.346;2023-01-23T14:25:52;18.33;;;9.67;;
48975;SDS011;34791;52.752;8.346;2023-01-23T14:28:17;25.40;;;10.70;;
48975;SDS011;34791;52.752;8.346;2023-01-23T14:30:53;24.23;;;11.80;;
48975;SDS011;34791;52.752;8.346;2023-01-23T14:33:22;23.23;;;11.20;;
48975;SDS011;34791;52.752;8.346;2023-01-23T14:35:48;20.60;;;10.23;;
48975;SDS011;34791;52.752;8.346;2023-01-23T14:38:25;17.23;;;8.27;;
48975;SDS011;34791;52.752;8.346;2023-01-23T14:40:55;22.20;;;11.50;;
48975;SDS011;34791;52.752;8.346;2023-01-23T14:43:22;20.87;;;10.87;;
48975;SDS011;34791;52.752;8.346;2023-01-23T14:45:55;22.23;;;11.27;;
48975;SDS011;34791;52.752;8.346;2023-01-23T14:48:26;21.67;;;10.53;;
48975;SDS011;34791;52.752;8.346;2023-01-23T14:51:02;25.87;;;11.33;;
48975;SDS011;34791;52.752;8.346;2023-01-23T14:53:31;23.27;;;10.97;;
48975;SDS011;34791;52.752;8.346;2023-01-23T14:55:56;24.33;;;11.30;;
48975;SDS011;34791;52.752;8.346;2023-01-23T14:58:24;26.40;;;12.23;;
48975;SDS011;34791;52.752;8.346;2023-01-23T15:00:52;22.67;;;12.23;;
48975;SDS011;34791;52.752;8.346;2023-01-23T15:05:59;29.50;;;13.40;;
48975;SDS011;34791;52.752;8.346;2023-01-23T15:08:30;22.90;;;11.07;;
48975;SDS011;34791;52.752;8.346;2023-01-23T15:10:57;23.53;;;11.67;;
48975;SDS011;34791;52.752;8.346;2023-01-23T15:13:31;17.07;;;7.40;;
48975;SDS011;34791;52.752;8.346;2023-01-23T15:16:04;21.67;;;10.93;;
48975;SDS011;34791;52.752;8.346;2023-01-23T15:18:34;22.80;;;11.57;;
48975;SDS011;34791;52.752;8.346;2023-01-23T15:21:01;24.97;;;12.00;;
48975;SDS011;34791;52.752;8.346;2023-01-23T15:23:30;22.53;;;11.03;;
48975;SDS011;34791;52.752;8.346;2023-01-23T15:26:17;23.93;;;11.70;;
48975;SDS011;34791;52.752;8.346;2023-01-23T15:31:25;18.70;;;7.93;;
48975;SDS011;34791;52.752;8.346;2023-01-23T15:34:09;20.98;;;10.77;;
48975;SDS011;34791;52.752;8.346;2023-01-23T15:36:35;18.77;;;8.77;;
48975;SDS011;34791;52.752;8.346;2023-01-23T15:39:01;26.60;;;12.50;;
48975;SDS011;34791;52.752;8.346;2023-01-23T15:41:43;26.93;;;11.90;;
48975;SDS011;34791;52.752;8.346;2023-01-23T15:44:11;25.03;;;11.33;;
48975;SDS011;34791;52.752;8.346;2023-01-23T15:46:41;17.92;;;8.45;;
48975;SDS011;34791;52.752;8.346;2023-01-23T15:49:06;29.20;;;14.07;;
48975;SDS011;34791;52.752;8.346;2023-01-23T15:51:32;29.00;;;12.77;;
48975;SDS011;34791;52.752;8.346;2023-01-23T15:53:59;24.93;;;11.77;;
48975;SDS011;34791;52.752;8.346;2023-01-23T15:56:25;22.43;;;11.67;;
48975;SDS011;34791;52.752;8.346;2023-01-23T15:58:53;31.87;;;15.03;;
48975;SDS011;34791;52.752;8.346;2023-01-23T16:01:19;27.70;;;12.13;;
48975;SDS011;34791;52.752;8.346;2023-01-23T16:03:44;31.57;;;14.07;;
48975;SDS011;34791;52.752;8.346;2023-01-23T16:06:14;24.07;;;10.57;;
48975;SDS011;34791;52.752;8.346;2023-01-23T16:08:42;34.67;;;14.90;;
48975;SDS011;34791;52.752;8.346;2023-01-23T16:11:08;28.00;;;13.23;;
48975;SDS011;34791;52.752;8.346;2023-01-23T16:13:34;28.07;;;14.43;;
48975;SDS011;34791;52.752;8.346;2023-01-23T16:15:59;26.07;;;12.53;;
48975;SDS011;34791;52.752;8.346;2023-01-23T16:18:25;30.67;;;14.27;;
48975;SDS011;34791;52.752;8.346;2023-01-23T16:20:50;33.00;;;13.67;;
48975;SDS011;34791;52.752;8.346;2023-01-23T16:23:20;25.37;;;11.87;;
48975;SDS011;34791;52.752;8.346;2023-01-23T16:25:48;27.33;;;12.97;;
48975;SDS011;34791;52.752;8.346;2023-01-23T16:28:18;29.30;;;14.40;;
48975;SDS011;34791;52.752;8.346;2023-01-23T16:30:46;26.77;;;13.73;;
48975;SDS011;34791;52.752;8.346;2023-01-23T16:33:12;29.47;;;13.50;;
48975;SDS011;34791;52.752;8.346;2023-01-23T16:35:38;29.83;;;13.53;;